sensor_id;sensor_type;location;lat;lon;timestamp;P1;durP1;ratioP1;P2;durP2;ratioP2
21438;SDS011;10880;50.302;18.736;2023-07-09T00:01:18;8.63;;;5.93;;
21438;SDS011;10880;50.302;18.736;2023-07-09T00:03:52;8.27;;;6.33;;
21438;SDS011;10880;50.302;18.736;2023-07-09T00:06:20;7.43;;;6.30;;
21438;SDS011;10880;50.302;18.736;2023-07-09T00:08:47;8.87;;;6.60;;
21438;SDS011;10880;50.302;18.736;2023-07-09T00:11:15;8.73;;;6.10;;
21438;SDS011;10880;50.302;18.736;2023-07-09T00:13:49;7.87;;;6.20;;
21438;SDS011;10880;50.302;18.736;2023-07-09T00:16:18;8.50;;;5.97;;
21438;SDS011;10880;50.302;18.736;2023-07-09T00:18:49;7.97;;;6.03;;
21438;SDS011;10880;50.302;18.736;2023-07-09T00:21:21;7.43;;;5.50;;
21438;SDS011;10880;50.302;18.736;2023-07-09T00:23:48;6.87;;;5.17;;
21438;SDS011;10880;50.302;18.736;2023-07-09T00:33:48;6.23;;;4.57;;
21438;SDS011;10880;50.302;18.736;2023-07-09T00:36:25;6.70;;;4.80;;
21438;SDS011;10880;50.302;18.736;2023-07-09T00:38:58;5.80;;;4.57;;
21438;SDS011;10880;50.302;18.736;2023-07-09T00:41:36;6.20;;;5.20;;
21438;SDS011;10880;50.302;18.736;2023-07-09T00:49:32;7.10;;;5.70;;
21438;SDS011;10880;50.302;18.736;2023-07-09T00:52:07;6.87;;;5.37;;
21438;SDS011;10880;50.302;18.736;2023-07-09T00:55:15;8.00;;;5.63;;
21438;SDS011;10880;50.302;18.736;2023-07-09T00:57:47;6.67;;;5.00;;
21438;SDS011;10880;50.302;18.736;2023-07-09T01:00:23;6.07;;;4.93;;
21438;SDS011;10880;50.302;18.736;2023-07-09T01:02:59;6.23;;;5.00;;
21438;SDS011;10880;50.302;18.736;2023-07-09T01:05:26;5.90;;;4.73;;
21438;SDS011;10880;50.302;18.736;2023-07-09T01:07:59;5.60;;;4.73;;
21438;SDS011;10880;50.302;18.736;2023-07-09T01:10:26;6.10;;;5.17;;
21438;SDS011;10880;50.302;18.736;2023-07-09T01:12:54;7.73;;;5.10;;
21438;SDS011;10880;50.302;18.736;2023-07-09T01:15:20;6.10;;;4.87;;
21438;SDS011;10880;50.302;18.736;2023-07-09T01:21:03;5.50;;;4.33;;
21438;SDS011;10880;50.302;18.736;2023-07-09T01:23:41;5.50;;;4.90;;
21438;SDS011;10880;50.302;18.736;2023-07-09T01:26:16;6.37;;;4.63;;
21438;SDS011;10880;50.302;18.736;2023-07-09T01:28:46;5.30;;;4.43;;
21438;SDS011;10880;50.302;18.736;2023-07-09T01:31:14;5.67;;;4.43;;
21438;SDS011;10880;50.302;18.736;2023-07-09T01:33:41;5.27;;;4.23;;
21438;SDS011;10880;50.302;18.736;2023-07-09T01:36:14;5.90;;;4.57;;
21438;SDS011;10880;50.302;18.736;2023-07-09T01:38:43;5.97;;;4.40;;
21438;SDS011;10880;50.302;18.736;2023-07-09T01:41:11;5.43;;;4.57;;
21438;SDS011;10880;50.302;18.736;2023-07-09T01:43:40;5.30;;;4.03;;
21438;SDS011;10880;50.302;18.736;2023-07-09T01:46:08;5.67;;;4.23;;
21438;SDS011;10880;50.302;18.736;2023-07-09T01:48:34;5.13;;;4.37;;
21438;SDS011;10880;50.302;18.736;2023-07-09T01:51:09;6.90;;;4.60;;
21438;SDS011;10880;50.302;18.736;2023-07-09T01:53:37;5.83;;;4.60;;
21438;SDS011;10880;50.302;18.736;2023-07-09T01:56:07;6.50;;;4.80;;
21438;SDS011;10880;50.302;18.736;2023-07-09T01:58:33;6.67;;;4.73;;
21438;SDS011;10880;50.302;18.736;2023-07-09T02:01:00;5.23;;;4.50;;
21438;SDS011;10880;50.302;18.736;2023-07-09T02:03:27;11.00;;;4.70;;
21438;SDS011;10880;50.302;18.736;2023-07-09T02:05:54;8.40;;;4.63;;
21438;SDS011;10880;50.302;18.736;2023-07-09T02:08:21;8.23;;;4.70;;
21438;SDS011;10880;50.302;18.736;2023-07-09T02:10:48;5.63;;;3.97;;
21438;SDS011;10880;50.302;18.736;2023-07-09T02:13:15;7.03;;;4.73;;
21438;SDS011;10880;50.302;18.736;2023-07-09T02:15:42;8.83;;;4.40;;
21438;SDS011;10880;50.302;18.736;2023-07-09T02:18:14;6.30;;;4.30;;
21438;SDS011;10880;50.302;18.736;2023-07-09T02:20:42;4.47;;;3.73;;
21438;SDS011;10880;50.302;18.736;2023-07-09T02:23:12;4.83;;;4.00;;
21438;SDS011;10880;50.302;18.736;2023-07-09T02:25:38;3.93;;;3.47;;
21438;SDS011;10880;50.302;18.736;2023-07-09T02:28:05;4.73;;;3.70;;
21438;SDS011;10880;50.302;18.736;2023-07-09T02:30:32;5.43;;;4.00;;
21438;SDS011;10880;50.302;18.736;2023-07-09T02:32:59;4.90;;;3.23;;
21438;SDS011;10880;50.302;18.736;2023-07-09T02:35:25;3.90;;;3.37;;
21438;SDS011;10880;50.302;18.736;2023-07-09T02:37:52;5.90;;;4.10;;
21438;SDS011;10880;50.302;18.736;2023-07-09T02:40:18;4.60;;;4.10;;
21438;SDS011;10880;50.302;18.736;2023-07-09T02:42:45;3.93;;;3.53;;
21438;SDS011;10880;50.302;18.736;2023-07-09T02:45:13;4.90;;;3.90;;
21438;SDS011;10880;50.302;18.736;2023-07-09T02:47:40;4.07;;;3.67;;
21438;SDS011;10880;50.302;18.736;2023-07-09T02:50:07;5.17;;;3.83;;
21438;SDS011;10880;50.302;18.736;2023-07-09T02:52:34;4.10;;;3.63;;
21438;SDS011;10880;50.302;18.736;2023-07-09T02:55:01;4.33;;;3.63;;
21438;SDS011;10880;50.302;18.736;2023-07-09T02:57:28;4.37;;;3.90;;
21438;SDS011;10880;50.302;18.736;2023-07-09T02:59:54;5.33;;;4.47;;
21438;SDS011;10880;50.302;18.736;2023-07-09T03:02:21;5.33;;;4.00;;
21438;SDS011;10880;50.302;18.736;2023-07-09T03:04:48;4.67;;;3.83;;
21438;SDS011;10880;50.302;18.736;2023-07-09T03:07:14;5.57;;;4.17;;
21438;SDS011;10880;50.302;18.736;2023-07-09T03:09:40;5.17;;;3.90;;
21438;SDS011;10880;50.302;18.736;2023-07-09T03:12:07;5.10;;;3.93;;
21438;SDS011;10880;50.302;18.736;2023-07-09T03:14:35;4.80;;;4.00;;
21438;SDS011;10880;50.302;18.736;2023-07-09T03:17:01;4.20;;;3.80;;
21438;SDS011;10880;50.302;18.736;2023-07-09T03:19:28;5.10;;;3.80;;
21438;SDS011;10880;50.302;18.736;2023-07-09T03:21:54;4.57;;;3.57;;
21438;SDS011;10880;50.302;18.736;2023-07-09T03:24:21;5.40;;;3.70;;
21438;SDS011;10880;50.302;18.736;2023-07-09T03:26:48;5.40;;;4.60;;
21438;SDS011;10880;50.302;18.736;2023-07-09T03:29:14;4.90;;;4.10;;
21438;SDS011;10880;50.302;18.736;2023-07-09T03:31:41;5.80;;;4.50;;
21438;SDS011;10880;50.302;18.736;2023-07-09T03:34:09;4.97;;;4.30;;
21438;SDS011;10880;50.302;18.736;2023-07-09T03:36:36;5.47;;;4.27;;
21438;SDS011;10880;50.302;18.736;2023-07-09T03:39:04;5.47;;;4.70;;
21438;SDS011;10880;50.302;18.736;2023-07-09T03:41:34;4.47;;;3.97;;
21438;SDS011;10880;50.302;18.736;2023-07-09T03:44:01;4.90;;;4.27;;
21438;SDS011;10880;50.302;18.736;2023-07-09T03:46:28;4.93;;;4.10;;
21438;SDS011;10880;50.302;18.736;2023-07-09T03:48:54;4.60;;;3.67;;
21438;SDS011;10880;50.302;18.736;2023-07-09T03:51:21;4.40;;;3.67;;
21438;SDS011;10880;50.302;18.736;2023-07-09T03:53:48;4.60;;;3.70;;
21438;SDS011;10880;50.302;18.736;2023-07-09T03:56:14;4.40;;;3.80;;
21438;SDS011;10880;50.302;18.736;2023-07-09T03:58:40;5.77;;;3.77;;
21438;SDS011;10880;50.302;18.736;2023-07-09T04:01:07;4.30;;;3.77;;
21438;SDS011;10880;50.302;18.736;2023-07-09T04:03:34;4.90;;;3.83;;
21438;SDS011;10880;50.302;18.736;2023-07-09T04:06:00;4.20;;;3.80;;
21438;SDS011;10880;50.302;18.736;2023-07-09T04:08:27;5.10;;;3.87;;
21438;SDS011;10880;50.302;18.736;2023-07-09T04:10:54;4.00;;;3.47;;
21438;SDS011;10880;50.302;18.736;2023-07-09T04:13:24;4.33;;;3.30;;
21438;SDS011;10880;50.302;18.736;2023-07-09T04:15:52;3.77;;;3.47;;
21438;SDS011;10880;50.302;18.736;2023-07-09T04:18:22;4.17;;;3.40;;
21438;SDS011;10880;50.302;18.736;2023-07-09T04:20:49;3.83;;;3.50;;
21438;SDS011;10880;50.302;18.736;2023-07-09T04:23:16;4.30;;;3.40;;
21438;SDS011;10880;50.302;18.736;2023-07-09T04:25:43;4.83;;;3.77;;
21438;SDS011;10880;50.302;18.736;2023-07-09T04:28:10;3.97;;;3.57;;
21438;SDS011;10880;50.302;18.736;2023-07-09T04:30:37;4.43;;;3.47;;
21438;SDS011;10880;50.302;18.736;2023-07-09T04:33:04;4.70;;;3.47;;
21438;SDS011;10880;50.302;18.736;2023-07-09T04:35:31;4.10;;;3.13;;
21438;SDS011;10880;50.302;18.736;2023-07-09T04:37:57;3.80;;;3.40;;
21438;SDS011;10880;50.302;18.736;2023-07-09T04:40:24;3.43;;;3.13;;
21438;SDS011;10880;50.302;18.736;2023-07-09T04:42:50;4.20;;;3.30;;
21438;SDS011;10880;50.302;18.736;2023-07-09T04:45:17;3.83;;;3.30;;
21438;SDS011;10880;50.302;18.736;2023-07-09T04:47:44;3.40;;;3.10;;
21438;SDS011;10880;50.302;18.736;2023-07-09T04:50:10;4.27;;;3.47;;
21438;SDS011;10880;50.302;18.736;2023-07-09T04:52:37;3.67;;;3.17;;
21438;SDS011;10880;50.302;18.736;2023-07-09T04:55:05;3.20;;;2.90;;
21438;SDS011;10880;50.302;18.736;2023-07-09T04:57:33;3.20;;;2.90;;
21438;SDS011;10880;50.302;18.736;2023-07-09T04:59:59;3.70;;;3.17;;
21438;SDS011;10880;50.302;18.736;2023-07-09T05:02:26;3.30;;;3.00;;
21438;SDS011;10880;50.302;18.736;2023-07-09T05:04:53;5.03;;;3.30;;
21438;SDS011;10880;50.302;18.736;2023-07-09T05:07:19;3.67;;;3.17;;
21438;SDS011;10880;50.302;18.736;2023-07-09T05:09:46;3.37;;;3.07;;
21438;SDS011;10880;50.302;18.736;2023-07-09T05:12:13;4.53;;;3.60;;
21438;SDS011;10880;50.302;18.736;2023-07-09T05:14:40;4.70;;;3.60;;
21438;SDS011;10880;50.302;18.736;2023-07-09T05:17:07;3.60;;;3.30;;
21438;SDS011;10880;50.302;18.736;2023-07-09T05:19:33;4.17;;;3.43;;
21438;SDS011;10880;50.302;18.736;2023-07-09T05:22:02;3.17;;;2.77;;
21438;SDS011;10880;50.302;18.736;2023-07-09T05:24:29;3.43;;;3.10;;
21438;SDS011;10880;50.302;18.736;2023-07-09T05:26:55;5.00;;;4.00;;
21438;SDS011;10880;50.302;18.736;2023-07-09T05:29:25;3.83;;;3.30;;
21438;SDS011;10880;50.302;18.736;2023-07-09T05:31:51;3.40;;;3.10;;
21438;SDS011;10880;50.302;18.736;2023-07-09T05:34:18;3.90;;;2.80;;
21438;SDS011;10880;50.302;18.736;2023-07-09T05:39:31;3.57;;;3.10;;
21438;SDS011;10880;50.302;18.736;2023-07-09T05:41:57;2.73;;;2.40;;
21438;SDS011;10880;50.302;18.736;2023-07-09T05:44:24;3.30;;;2.60;;
21438;SDS011;10880;50.302;18.736;2023-07-09T05:46:50;2.47;;;2.27;;
21438;SDS011;10880;50.302;18.736;2023-07-09T05:49:24;2.57;;;2.30;;
21438;SDS011;10880;50.302;18.736;2023-07-09T05:51:50;2.73;;;2.37;;
21438;SDS011;10880;50.302;18.736;2023-07-09T05:54:16;2.40;;;2.20;;
21438;SDS011;10880;50.302;18.736;2023-07-09T05:56:44;2.33;;;2.13;;
21438;SDS011;10880;50.302;18.736;2023-07-09T05:59:19;2.60;;;2.33;;
21438;SDS011;10880;50.302;18.736;2023-07-09T06:01:46;2.63;;;2.33;;
21438;SDS011;10880;50.302;18.736;2023-07-09T06:04:12;2.30;;;2.10;;
21438;SDS011;10880;50.302;18.736;2023-07-09T06:06:41;2.40;;;2.17;;
21438;SDS011;10880;50.302;18.736;2023-07-09T06:09:08;2.17;;;1.97;;
21438;SDS011;10880;50.302;18.736;2023-07-09T06:11:36;2.27;;;2.07;;
21438;SDS011;10880;50.302;18.736;2023-07-09T06:14:03;2.27;;;2.10;;
21438;SDS011;10880;50.302;18.736;2023-07-09T06:16:29;2.10;;;1.90;;
21438;SDS011;10880;50.302;18.736;2023-07-09T06:18:58;2.20;;;2.00;;
21438;SDS011;10880;50.302;18.736;2023-07-09T06:21:24;1.90;;;1.80;;
21438;SDS011;10880;50.302;18.736;2023-07-09T06:26:44;1.83;;;1.73;;
21438;SDS011;10880;50.302;18.736;2023-07-09T06:29:10;1.80;;;1.70;;
21438;SDS011;10880;50.302;18.736;2023-07-09T06:34:13;2.57;;;2.27;;
21438;SDS011;10880;50.302;18.736;2023-07-09T06:40:15;2.13;;;1.93;;
21438;SDS011;10880;50.302;18.736;2023-07-09T06:48:37;1.80;;;1.70;;
21438;SDS011;10880;50.302;18.736;2023-07-09T06:53:55;1.77;;;1.67;;
21438;SDS011;10880;50.302;18.736;2023-07-09T06:56:21;3.17;;;2.10;;
21438;SDS011;10880;50.302;18.736;2023-07-09T07:01:46;1.90;;;1.80;;
21438;SDS011;10880;50.302;18.736;2023-07-09T07:04:13;1.70;;;1.60;;
21438;SDS011;10880;50.302;18.736;2023-07-09T07:06:41;2.10;;;1.87;;
21438;SDS011;10880;50.302;18.736;2023-07-09T07:09:08;1.73;;;1.63;;
21438;SDS011;10880;50.302;18.736;2023-07-09T07:11:34;1.70;;;1.60;;
21438;SDS011;10880;50.302;18.736;2023-07-09T07:14:01;1.80;;;1.60;;
21438;SDS011;10880;50.302;18.736;2023-07-09T07:16:28;1.60;;;1.50;;
21438;SDS011;10880;50.302;18.736;2023-07-09T07:18:55;1.57;;;1.43;;
21438;SDS011;10880;50.302;18.736;2023-07-09T07:24:22;1.53;;;1.43;;
21438;SDS011;10880;50.302;18.736;2023-07-09T07:29:47;1.57;;;1.47;;
21438;SDS011;10880;50.302;18.736;2023-07-09T07:32:18;1.73;;;1.30;;
21438;SDS011;10880;50.302;18.736;2023-07-09T07:34:45;1.43;;;1.33;;
21438;SDS011;10880;50.302;18.736;2023-07-09T07:37:13;1.50;;;1.40;;
21438;SDS011;10880;50.302;18.736;2023-07-09T07:39:47;1.60;;;1.50;;
21438;SDS011;10880;50.302;18.736;2023-07-09T07:42:14;1.47;;;1.37;;
21438;SDS011;10880;50.302;18.736;2023-07-09T07:44:51;1.53;;;1.43;;
21438;SDS011;10880;50.302;18.736;2023-07-09T07:47:18;1.50;;;1.40;;
21438;SDS011;10880;50.302;18.736;2023-07-09T07:49:44;1.80;;;1.70;;
21438;SDS011;10880;50.302;18.736;2023-07-09T07:52:14;2.10;;;1.40;;
21438;SDS011;10880;50.302;18.736;2023-07-09T07:54:40;1.93;;;1.80;;
21438;SDS011;10880;50.302;18.736;2023-07-09T07:57:07;1.67;;;1.57;;
21438;SDS011;10880;50.302;18.736;2023-07-09T07:59:35;1.70;;;1.60;;
21438;SDS011;10880;50.302;18.736;2023-07-09T08:02:02;1.93;;;1.40;;
21438;SDS011;10880;50.302;18.736;2023-07-09T08:07:22;1.42;;;1.33;;
21438;SDS011;10880;50.302;18.736;2023-07-09T08:13:00;1.23;;;1.13;;
21438;SDS011;10880;50.302;18.736;2023-07-09T08:15:37;1.38;;;1.27;;
21438;SDS011;10880;50.302;18.736;2023-07-09T08:18:04;1.40;;;1.30;;
21438;SDS011;10880;50.302;18.736;2023-07-09T08:20:32;1.20;;;1.15;;
21438;SDS011;10880;50.302;18.736;2023-07-09T08:22:59;1.30;;;1.20;;
21438;SDS011;10880;50.302;18.736;2023-07-09T08:25:27;1.20;;;1.10;;
21438;SDS011;10880;50.302;18.736;2023-07-09T08:27:54;1.10;;;1.10;;
21438;SDS011;10880;50.302;18.736;2023-07-09T08:30:20;1.17;;;1.08;;
21438;SDS011;10880;50.302;18.736;2023-07-09T08:32:47;1.02;;;1.00;;
21438;SDS011;10880;50.302;18.736;2023-07-09T08:35:13;1.08;;;0.98;;
21438;SDS011;10880;50.302;18.736;2023-07-09T08:37:40;1.20;;;1.10;;
21438;SDS011;10880;50.302;18.736;2023-07-09T08:40:09;1.20;;;1.10;;
21438;SDS011;10880;50.302;18.736;2023-07-09T08:42:40;1.20;;;1.10;;
21438;SDS011;10880;50.302;18.736;2023-07-09T08:50:24;0.80;;;0.80;;
21438;SDS011;10880;50.302;18.736;2023-07-09T08:52:55;1.02;;;1.00;;
21438;SDS011;10880;50.302;18.736;2023-07-09T08:55:25;0.95;;;0.95;;
21438;SDS011;10880;50.302;18.736;2023-07-09T08:57:59;0.82;;;0.82;;
21438;SDS011;10880;50.302;18.736;2023-07-09T09:00:31;0.90;;;0.90;;
21438;SDS011;10880;50.302;18.736;2023-07-09T09:03:10;0.80;;;0.80;;
21438;SDS011;10880;50.302;18.736;2023-07-09T09:05:46;0.90;;;0.90;;
21438;SDS011;10880;50.302;18.736;2023-07-09T09:08:21;0.98;;;0.93;;
21438;SDS011;10880;50.302;18.736;2023-07-09T09:11:20;0.90;;;0.90;;
21438;SDS011;10880;50.302;18.736;2023-07-09T09:14:28;1.00;;;0.80;;
21438;SDS011;10880;50.302;18.736;2023-07-09T09:16:58;0.88;;;0.88;;
21438;SDS011;10880;50.302;18.736;2023-07-09T09:19:33;0.63;;;0.63;;
21438;SDS011;10880;50.302;18.736;2023-07-09T09:22:06;0.80;;;0.80;;
21438;SDS011;10880;50.302;18.736;2023-07-09T09:27:02;0.80;;;0.80;;
21438;SDS011;10880;50.302;18.736;2023-07-09T09:29:29;0.80;;;0.80;;
21438;SDS011;10880;50.302;18.736;2023-07-09T09:31:58;1.00;;;0.90;;
21438;SDS011;10880;50.302;18.736;2023-07-09T09:34:29;0.90;;;0.90;;
21438;SDS011;10880;50.302;18.736;2023-07-09T09:36:57;0.70;;;0.70;;
21438;SDS011;10880;50.302;18.736;2023-07-09T09:39:25;0.70;;;0.70;;
21438;SDS011;10880;50.302;18.736;2023-07-09T09:41:55;0.80;;;0.80;;
21438;SDS011;10880;50.302;18.736;2023-07-09T09:44:27;0.98;;;0.80;;
21438;SDS011;10880;50.302;18.736;2023-07-09T09:46:57;0.90;;;0.90;;
21438;SDS011;10880;50.302;18.736;2023-07-09T09:49:24;1.05;;;0.98;;
21438;SDS011;10880;50.302;18.736;2023-07-09T09:51:51;0.70;;;0.70;;
21438;SDS011;10880;50.302;18.736;2023-07-09T09:54:26;0.80;;;0.80;;
21438;SDS011;10880;50.302;18.736;2023-07-09T09:56:54;0.90;;;0.80;;
21438;SDS011;10880;50.302;18.736;2023-07-09T09:59:21;0.80;;;0.80;;
21438;SDS011;10880;50.302;18.736;2023-07-09T10:02:00;0.80;;;0.80;;
21438;SDS011;10880;50.302;18.736;2023-07-09T10:04:34;0.93;;;0.80;;
21438;SDS011;10880;50.302;18.736;2023-07-09T10:07:01;0.85;;;0.80;;
21438;SDS011;10880;50.302;18.736;2023-07-09T10:22:53;0.80;;;0.80;;
21438;SDS011;10880;50.302;18.736;2023-07-09T10:25:39;0.82;;;0.82;;
21438;SDS011;10880;50.302;18.736;2023-07-09T10:34:28;0.88;;;0.88;;
21438;SDS011;10880;50.302;18.736;2023-07-09T10:36:57;0.80;;;0.80;;
21438;SDS011;10880;50.302;18.736;2023-07-09T10:39:46;0.70;;;0.70;;
21438;SDS011;10880;50.302;18.736;2023-07-09T10:42:19;0.90;;;0.90;;
21438;SDS011;10880;50.302;18.736;2023-07-09T10:44:54;1.10;;;1.00;;
21438;SDS011;10880;50.302;18.736;2023-07-09T10:47:47;1.70;;;1.20;;
21438;SDS011;10880;50.302;18.736;2023-07-09T10:53:00;1.00;;;0.90;;
21438;SDS011;10880;50.302;18.736;2023-07-09T10:55:39;0.90;;;0.90;;
21438;SDS011;10880;50.302;18.736;2023-07-09T10:58:19;0.80;;;0.80;;
21438;SDS011;10880;50.302;18.736;2023-07-09T11:01:06;0.73;;;0.73;;
21438;SDS011;10880;50.302;18.736;2023-07-09T11:03:43;0.82;;;0.82;;
21438;SDS011;10880;50.302;18.736;2023-07-09T11:06:19;0.90;;;0.90;;
21438;SDS011;10880;50.302;18.736;2023-07-09T11:08:49;0.80;;;0.80;;
21438;SDS011;10880;50.302;18.736;2023-07-09T11:11:40;1.05;;;0.80;;
21438;SDS011;10880;50.302;18.736;2023-07-09T11:14:23;0.70;;;0.70;;
21438;SDS011;10880;50.302;18.736;2023-07-09T11:16:56;0.85;;;0.82;;
21438;SDS011;10880;50.302;18.736;2023-07-09T11:19:24;1.00;;;0.90;;
21438;SDS011;10880;50.302;18.736;2023-07-09T11:25:08;0.77;;;0.75;;
21438;SDS011;10880;50.302;18.736;2023-07-09T11:27:50;0.80;;;0.80;;
21438;SDS011;10880;50.302;18.736;2023-07-09T11:30:30;0.85;;;0.85;;
21438;SDS011;10880;50.302;18.736;2023-07-09T11:32:58;0.80;;;0.75;;
21438;SDS011;10880;50.302;18.736;2023-07-09T11:35:49;0.88;;;0.80;;
21438;SDS011;10880;50.302;18.736;2023-07-09T11:38:42;0.80;;;0.80;;
21438;SDS011;10880;50.302;18.736;2023-07-09T11:41:37;0.80;;;0.80;;
21438;SDS011;10880;50.302;18.736;2023-07-09T11:44:21;0.90;;;0.90;;
21438;SDS011;10880;50.302;18.736;2023-07-09T11:49:27;0.95;;;0.85;;
21438;SDS011;10880;50.302;18.736;2023-07-09T11:52:02;0.90;;;0.90;;
21438;SDS011;10880;50.302;18.736;2023-07-09T11:54:34;0.82;;;0.82;;
21438;SDS011;10880;50.302;18.736;2023-07-09T11:57:09;0.80;;;0.80;;
21438;SDS011;10880;50.302;18.736;2023-07-09T11:59:39;0.77;;;0.77;;
21438;SDS011;10880;50.302;18.736;2023-07-09T12:02:18;1.20;;;0.82;;
21438;SDS011;10880;50.302;18.736;2023-07-09T12:04:52;1.02;;;1.00;;
21438;SDS011;10880;50.302;18.736;2023-07-09T12:07:20;0.80;;;0.80;;
21438;SDS011;10880;50.302;18.736;2023-07-09T12:09:49;0.70;;;0.70;;
21438;SDS011;10880;50.302;18.736;2023-07-09T12:12:20;0.82;;;0.82;;
21438;SDS011;10880;50.302;18.736;2023-07-09T12:14:50;0.98;;;0.90;;
21438;SDS011;10880;50.302;18.736;2023-07-09T12:17:17;1.10;;;0.80;;
21438;SDS011;10880;50.302;18.736;2023-07-09T12:19:44;0.90;;;0.90;;
21438;SDS011;10880;50.302;18.736;2023-07-09T12:22:18;0.93;;;0.70;;
21438;SDS011;10880;50.302;18.736;2023-07-09T12:24:47;0.90;;;0.90;;
21438;SDS011;10880;50.302;18.736;2023-07-09T12:27:23;0.85;;;0.85;;
21438;SDS011;10880;50.302;18.736;2023-07-09T12:29:55;0.80;;;0.80;;
21438;SDS011;10880;50.302;18.736;2023-07-09T12:32:24;1.27;;;0.80;;
21438;SDS011;10880;50.302;18.736;2023-07-09T12:34:53;0.90;;;0.88;;
21438;SDS011;10880;50.302;18.736;2023-07-09T12:37:22;0.90;;;0.90;;
21438;SDS011;10880;50.302;18.736;2023-07-09T12:39:53;0.77;;;0.77;;
21438;SDS011;10880;50.302;18.736;2023-07-09T12:42:20;0.85;;;0.85;;
21438;SDS011;10880;50.302;18.736;2023-07-09T12:44:54;0.90;;;0.90;;
21438;SDS011;10880;50.302;18.736;2023-07-09T12:47:21;1.10;;;1.00;;
21438;SDS011;10880;50.302;18.736;2023-07-09T12:49:51;0.90;;;0.90;;
21438;SDS011;10880;50.302;18.736;2023-07-09T12:52:44;0.98;;;0.98;;
21438;SDS011;10880;50.302;18.736;2023-07-09T12:55:21;1.38;;;1.27;;
21438;SDS011;10880;50.302;18.736;2023-07-09T12:57:51;1.02;;;1.00;;
21438;SDS011;10880;50.302;18.736;2023-07-09T13:00:21;1.10;;;1.00;;
21438;SDS011;10880;50.302;18.736;2023-07-09T13:02:54;0.80;;;0.80;;
21438;SDS011;10880;50.302;18.736;2023-07-09T13:05:23;1.00;;;0.90;;
21438;SDS011;10880;50.302;18.736;2023-07-09T13:07:53;0.90;;;0.90;;
21438;SDS011;10880;50.302;18.736;2023-07-09T13:10:28;0.90;;;0.90;;
21438;SDS011;10880;50.302;18.736;2023-07-09T13:13:05;1.10;;;1.00;;
21438;SDS011;10880;50.302;18.736;2023-07-09T13:15:39;1.00;;;0.90;;
21438;SDS011;10880;50.302;18.736;2023-07-09T13:18:11;1.27;;;1.00;;
21438;SDS011;10880;50.302;18.736;2023-07-09T13:20:44;0.90;;;0.90;;
21438;SDS011;10880;50.302;18.736;2023-07-09T13:23:33;1.10;;;1.00;;
21438;SDS011;10880;50.302;18.736;2023-07-09T13:25:59;0.98;;;0.90;;
21438;SDS011;10880;50.302;18.736;2023-07-09T13:28:30;1.17;;;1.08;;
21438;SDS011;10880;50.302;18.736;2023-07-09T13:30:59;1.23;;;1.13;;
21438;SDS011;10880;50.302;18.736;2023-07-09T13:33:27;5.90;;;4.47;;
21438;SDS011;10880;50.302;18.736;2023-07-09T13:35:54;13.05;;;9.93;;
21438;SDS011;10880;50.302;18.736;2023-07-09T13:38:22;10.75;;;7.72;;
21438;SDS011;10880;50.302;18.736;2023-07-09T13:40:51;8.05;;;5.78;;
21438;SDS011;10880;50.302;18.736;2023-07-09T13:43:26;5.60;;;5.10;;
21438;SDS011;10880;50.302;18.736;2023-07-09T13:45:57;4.60;;;3.90;;
21438;SDS011;10880;50.302;18.736;2023-07-09T13:48:26;3.20;;;2.88;;
21438;SDS011;10880;50.302;18.736;2023-07-09T13:50:56;2.47;;;2.17;;
21438;SDS011;10880;50.302;18.736;2023-07-09T13:53:24;1.90;;;1.80;;
21438;SDS011;10880;50.302;18.736;2023-07-09T13:56:00;1.38;;;1.27;;
21438;SDS011;10880;50.302;18.736;2023-07-09T13:58:27;1.20;;;1.10;;
21438;SDS011;10880;50.302;18.736;2023-07-09T14:00:58;1.80;;;1.70;;
21438;SDS011;10880;50.302;18.736;2023-07-09T14:03:31;2.97;;;2.42;;
21438;SDS011;10880;50.302;18.736;2023-07-09T14:06:00;3.03;;;2.60;;
21438;SDS011;10880;50.302;18.736;2023-07-09T14:08:26;2.88;;;2.28;;
21438;SDS011;10880;50.302;18.736;2023-07-09T14:10:53;1.85;;;1.75;;
21438;SDS011;10880;50.302;18.736;2023-07-09T14:13:21;1.60;;;1.50;;
21438;SDS011;10880;50.302;18.736;2023-07-09T14:15:50;4.38;;;2.13;;
21438;SDS011;10880;50.302;18.736;2023-07-09T14:18:17;2.78;;;2.05;;
21438;SDS011;10880;50.302;18.736;2023-07-09T14:20:46;2.63;;;2.38;;
21438;SDS011;10880;50.302;18.736;2023-07-09T14:23:13;4.70;;;3.20;;
21438;SDS011;10880;50.302;18.736;2023-07-09T14:25:42;4.88;;;3.70;;
21438;SDS011;10880;50.302;18.736;2023-07-09T14:28:19;6.20;;;4.53;;
21438;SDS011;10880;50.302;18.736;2023-07-09T14:30:46;9.20;;;6.05;;
21438;SDS011;10880;50.302;18.736;2023-07-09T14:33:17;7.70;;;5.80;;
21438;SDS011;10880;50.302;18.736;2023-07-09T14:35:47;6.32;;;5.05;;
21438;SDS011;10880;50.302;18.736;2023-07-09T14:40:47;5.32;;;3.90;;
21438;SDS011;10880;50.302;18.736;2023-07-09T14:43:18;4.20;;;3.60;;
21438;SDS011;10880;50.302;18.736;2023-07-09T14:45:48;5.53;;;4.18;;
21438;SDS011;10880;50.302;18.736;2023-07-09T14:48:20;5.82;;;4.75;;
21438;SDS011;10880;50.302;18.736;2023-07-09T14:50:48;6.72;;;4.88;;
21438;SDS011;10880;50.302;18.736;2023-07-09T14:53:16;5.90;;;4.38;;
21438;SDS011;10880;50.302;18.736;2023-07-09T14:55:47;5.85;;;4.60;;
21438;SDS011;10880;50.302;18.736;2023-07-09T14:58:17;6.82;;;5.18;;
21438;SDS011;10880;50.302;18.736;2023-07-09T15:00:45;5.47;;;3.50;;
21438;SDS011;10880;50.302;18.736;2023-07-09T15:03:20;3.47;;;2.72;;
21438;SDS011;10880;50.302;18.736;2023-07-09T15:05:49;2.15;;;1.90;;
21438;SDS011;10880;50.302;18.736;2023-07-09T15:08:20;1.83;;;1.55;;
21438;SDS011;10880;50.302;18.736;2023-07-09T15:10:49;1.50;;;1.40;;
21438;SDS011;10880;50.302;18.736;2023-07-09T15:13:19;1.30;;;1.20;;
21438;SDS011;10880;50.302;18.736;2023-07-09T15:15:52;1.15;;;1.05;;
21438;SDS011;10880;50.302;18.736;2023-07-09T15:18:18;1.20;;;1.10;;
21438;SDS011;10880;50.302;18.736;2023-07-09T15:20:47;1.10;;;1.00;;
21438;SDS011;10880;50.302;18.736;2023-07-09T15:23:20;1.23;;;1.08;;
21438;SDS011;10880;50.302;18.736;2023-07-09T15:25:49;1.00;;;1.00;;
21438;SDS011;10880;50.302;18.736;2023-07-09T15:28:24;1.00;;;1.00;;
21438;SDS011;10880;50.302;18.736;2023-07-09T15:30:51;1.17;;;1.08;;
21438;SDS011;10880;50.302;18.736;2023-07-09T15:33:18;0.95;;;0.90;;
21438;SDS011;10880;50.302;18.736;2023-07-09T15:35:46;1.10;;;1.00;;
21438;SDS011;10880;50.302;18.736;2023-07-09T15:40:43;1.10;;;1.00;;
21438;SDS011;10880;50.302;18.736;2023-07-09T15:43:12;0.82;;;0.82;;
21438;SDS011;10880;50.302;18.736;2023-07-09T15:45:42;0.90;;;0.90;;
21438;SDS011;10880;50.302;18.736;2023-07-09T15:51:03;1.10;;;1.00;;
21438;SDS011;10880;50.302;18.736;2023-07-09T15:53:30;0.70;;;0.70;;
21438;SDS011;10880;50.302;18.736;2023-07-09T15:55:58;0.90;;;0.90;;
21438;SDS011;10880;50.302;18.736;2023-07-09T15:58:27;0.80;;;0.70;;
21438;SDS011;10880;50.302;18.736;2023-07-09T16:00:57;0.77;;;0.77;;
21438;SDS011;10880;50.302;18.736;2023-07-09T16:03:23;0.80;;;0.80;;
21438;SDS011;10880;50.302;18.736;2023-07-09T16:05:49;0.95;;;0.85;;
21438;SDS011;10880;50.302;18.736;2023-07-09T16:08:16;0.90;;;0.80;;
21438;SDS011;10880;50.302;18.736;2023-07-09T16:10:43;0.93;;;0.90;;
21438;SDS011;10880;50.302;18.736;2023-07-09T16:13:15;0.90;;;0.90;;
21438;SDS011;10880;50.302;18.736;2023-07-09T16:15:45;0.88;;;0.80;;
21438;SDS011;10880;50.302;18.736;2023-07-09T16:18:12;0.98;;;0.98;;
21438;SDS011;10880;50.302;18.736;2023-07-09T16:20:39;1.02;;;0.80;;
21438;SDS011;10880;50.302;18.736;2023-07-09T16:23:07;0.85;;;0.85;;
21438;SDS011;10880;50.302;18.736;2023-07-09T16:25:44;0.70;;;0.70;;